Time;durP1;ratioP1;P1;durP2;ratioP2;P2;SDS_P1;SDS_P2;PMS_P1;PMS_P2;Temp;Humidity;BMP_temperature;BMP_pressure;BME280_temperature;BME280_humidity;BME280_pressure;Samples;Min_cycle;Max_cycle;Signal;HPM_P1;HPM_P2
2021/07/17 00:01:19;;;;;;;24.80;22.37;;;;;;;;;;5082142;28;24772;-56
2021/07/17 00:03:44;;;;;;;26.47;23.87;;;;;;;;;;5090787;28;24990;-56
2021/07/17 00:06:09;;;;;;;23.67;21.30;;;;;;;;;;5074172;28;24733;-56
2021/07/17 00:08:34;;;;;;;24.73;22.42;;;;;;;;;;5081817;28;24497;-56
2021/07/17 00:11:00;;;;;;;25.70;23.20;;;;;;;;;;5089136;28;24434;-56
2021/07/17 00:13:25;;;;;;;25.07;22.37;;;;;;;;;;5069563;28;24941;-56
2021/07/17 00:15:51;;;;;;;24.80;22.50;;;;;;;;;;5071869;28;24426;-56
2021/07/17 00:18:17;;;;;;;23.57;21.27;;;;;;;;;;5089369;28;24633;-56
2021/07/17 00:20:43;;;;;;;21.10;19.47;;;;;;;;;;5090369;28;24454;-56
2021/07/17 00:23:08;;;;;;;20.17;18.37;;;;;;;;;;5069667;28;25126;-56
2021/07/17 00:25:33;;;;;;;21.35;19.45;;;;;;;;;;5089836;28;24451;-56
2021/07/17 00:27:59;;;;;;;20.23;18.33;;;;;;;;;;5083820;28;24411;-56
2021/07/17 00:30:24;;;;;;;21.98;19.73;;;;;;;;;;5084518;28;24444;-56
2021/07/17 00:32:49;;;;;;;22.77;20.77;;;;;;;;;;5082464;28;24962;-56
2021/07/17 00:35:15;;;;;;;21.38;19.48;;;;;;;;;;5081500;28;24459;-55
2021/07/17 00:37:40;;;;;;;22.10;20.00;;;;;;;;;;5082177;28;24430;-57
2021/07/17 00:40:06;;;;;;;23.70;21.20;;;;;;;;;;5086156;28;24474;-56
2021/07/17 00:42:31;;;;;;;21.30;19.50;;;;;;;;;;5079762;28;24956;-55
2021/07/17 00:44:56;;;;;;;22.77;20.47;;;;;;;;;;5095731;28;24992;-56
2021/07/17 00:47:22;;;;;;;22.23;20.20;;;;;;;;;;5089185;28;24445;-56
2021/07/17 00:49:47;;;;;;;21.80;19.90;;;;;;;;;;5082459;28;24897;-55
2021/07/17 00:52:12;;;;;;;24.00;21.50;;;;;;;;;;5086730;28;24718;-56
2021/07/17 00:54:38;;;;;;;21.63;19.73;;;;;;;;;;5076646;28;24963;-56
2021/07/17 00:57:03;;;;;;;22.38;20.23;;;;;;;;;;5088699;28;24437;-56
2021/07/17 00:59:31;;;;;;;19.60;17.73;;;;;;;;;;5069972;28;24430;-56
2021/07/17 01:01:57;;;;;;;19.45;17.83;;;;;;;;;;5078832;28;24976;-56
2021/07/17 01:04:23;;;;;;;20.57;18.67;;;;;;;;;;5082497;28;24443;-55
2021/07/17 01:06:48;;;;;;;21.67;19.67;;;;;;;;;;5084045;28;24472;-56
2021/07/17 01:09:13;;;;;;;21.77;19.57;;;;;;;;;;5091424;28;24944;-55
2021/07/17 01:11:38;;;;;;;20.60;18.90;;;;;;;;;;5073709;28;24457;-56
2021/07/17 01:14:04;;;;;;;21.03;19.03;;;;;;;;;;5071635;28;24434;-56
2021/07/17 01:16:29;;;;;;;21.90;19.80;;;;;;;;;;5085213;28;24438;-56
2021/07/17 01:18:55;;;;;;;24.35;21.75;;;;;;;;;;5077380;28;24402;-56
2021/07/17 01:21:20;;;;;;;23.43;21.13;;;;;;;;;;5079947;28;24410;-56
2021/07/17 01:23:46;;;;;;;24.30;21.90;;;;;;;;;;5097275;28;24464;-56
2021/07/17 01:26:12;;;;;;;24.80;22.30;;;;;;;;;;5087819;28;24424;-56
2021/07/17 01:28:40;;;;;;;23.95;21.67;;;;;;;;;;5071946;28;24414;-55
2021/07/17 01:31:06;;;;;;;25.50;22.80;;;;;;;;;;5077727;28;24417;-56
2021/07/17 01:33:31;;;;;;;24.97;22.67;;;;;;;;;;5079134;28;24426;-56
2021/07/17 01:35:56;;;;;;;25.10;22.70;;;;;;;;;;5086551;28;24785;-56
2021/07/17 01:38:22;;;;;;;24.90;22.35;;;;;;;;;;5095505;28;24418;-56
2021/07/17 01:40:47;;;;;;;24.27;21.87;;;;;;;;;;5105422;28;24765;-56
2021/07/17 01:43:13;;;;;;;25.90;23.30;;;;;;;;;;5101394;28;24410;-56
2021/07/17 01:45:39;;;;;;;23.67;21.47;;;;;;;;;;5071547;28;24423;-56
2021/07/17 01:48:04;;;;;;;26.50;23.70;;;;;;;;;;5097400;28;24414;-55
2021/07/17 01:50:30;;;;;;;26.50;23.90;;;;;;;;;;5079429;28;24470;-57
2021/07/17 01:52:56;;;;;;;26.15;23.75;;;;;;;;;;5087413;28;24410;-56
2021/07/17 01:55:21;;;;;;;26.45;23.77;;;;;;;;;;5098903;28;24417;-56
2021/07/17 01:57:46;;;;;;;24.67;22.07;;;;;;;;;;5085722;28;24765;-56
2021/07/17 02:00:12;;;;;;;27.37;24.77;;;;;;;;;;5071727;28;24631;-55
2021/07/17 02:02:37;;;;;;;25.90;23.30;;;;;;;;;;5086280;28;24474;-55
2021/07/17 02:05:03;;;;;;;26.20;23.50;;;;;;;;;;5080732;28;24464;-56
2021/07/17 02:07:29;;;;;;;30.77;25.60;;;;;;;;;;5080919;28;24453;-55
2021/07/17 02:09:54;;;;;;;24.50;22.00;;;;;;;;;;5090903;28;25008;-55
2021/07/17 02:12:19;;;;;;;26.90;24.20;;;;;;;;;;5079793;28;24401;-55
2021/07/17 02:14:45;;;;;;;26.23;23.60;;;;;;;;;;5084951;28;24985;-55
2021/07/17 02:17:10;;;;;;;28.08;25.17;;;;;;;;;;5070578;28;24446;-56
2021/07/17 02:19:35;;;;;;;29.10;26.10;;;;;;;;;;5088159;28;24419;-56
2021/07/17 02:22:01;;;;;;;31.40;28.10;;;;;;;;;;5082722;28;24407;-56
2021/07/17 02:24:26;;;;;;;29.42;26.63;;;;;;;;;;5093924;28;24493;-56
2021/07/17 02:26:52;;;;;;;31.15;27.98;;;;;;;;;;5090047;28;24434;-56
2021/07/17 02:29:17;;;;;;;35.05;31.48;;;;;;;;;;5083225;28;24472;-56
2021/07/17 02:31:42;;;;;;;31.83;28.93;;;;;;;;;;5093857;28;24414;-56
2021/07/17 02:34:09;;;;;;;30.90;28.00;;;;;;;;;;5102783;28;24429;-57
2021/07/17 02:36:34;;;;;;;31.05;28.15;;;;;;;;;;5101099;28;24426;-57
2021/07/17 02:38:59;;;;;;;31.77;28.57;;;;;;;;;;5091249;28;24492;-57
2021/07/17 02:41:24;;;;;;;32.27;28.87;;;;;;;;;;5092172;28;24411;-56
2021/07/17 02:43:50;;;;;;;34.70;30.88;;;;;;;;;;5092832;28;24403;-57
2021/07/17 02:46:15;;;;;;;31.63;28.70;;;;;;;;;;5095590;28;24955;-57
2021/07/17 02:48:40;;;;;;;32.60;29.60;;;;;;;;;;5090654;28;25030;-57
2021/07/17 02:51:05;;;;;;;31.33;28.53;;;;;;;;;;5082438;28;24407;-57
2021/07/17 02:53:30;;;;;;;33.57;30.27;;;;;;;;;;5080878;28;24578;-57
2021/07/17 02:55:55;;;;;;;31.47;28.30;;;;;;;;;;5084618;28;24449;-57
2021/07/17 02:58:21;;;;;;;30.63;27.63;;;;;;;;;;5087623;28;25034;-57
2021/07/17 03:00:47;;;;;;;34.95;31.42;;;;;;;;;;5089190;28;24779;-58
2021/07/17 03:03:12;;;;;;;32.15;29.00;;;;;;;;;;5089346;28;24535;-57
2021/07/17 03:05:37;;;;;;;33.20;30.20;;;;;;;;;;5070779;28;24456;-57
2021/07/17 03:08:05;;;;;;;30.65;27.88;;;;;;;;;;5088243;28;24764;-57
2021/07/17 03:10:30;;;;;;;31.13;28.02;;;;;;;;;;5093378;28;24773;-59
2021/07/17 03:12:55;;;;;;;29.10;26.50;;;;;;;;;;5077501;28;25041;-58
2021/07/17 03:15:20;;;;;;;31.40;28.42;;;;;;;;;;5094760;28;24410;-57
2021/07/17 03:17:45;;;;;;;30.63;27.73;;;;;;;;;;5100032;28;24461;-58
2021/07/17 03:20:10;;;;;;;31.10;28.10;;;;;;;;;;5079112;28;24990;-57
2021/07/17 03:22:36;;;;;;;33.23;29.97;;;;;;;;;;5086099;28;24422;-58
2021/07/17 03:25:01;;;;;;;28.80;26.20;;;;;;;;;;5068837;28;24421;-58
2021/07/17 03:27:26;;;;;;;29.02;26.15;;;;;;;;;;5074105;28;25152;-58
2021/07/17 03:29:51;;;;;;;30.33;27.43;;;;;;;;;;5075031;28;24421;-58
2021/07/17 03:32:23;;;;;;;30.20;27.52;;;;;;;;;;5076324;28;24402;-58
2021/07/17 03:34:48;;;;;;;30.13;27.37;;;;;;;;;;5084911;28;24426;-58
2021/07/17 03:37:13;;;;;;;27.77;25.27;;;;;;;;;;5097851;28;24425;-59
2021/07/17 03:39:38;;;;;;;27.08;24.70;;;;;;;;;;5085651;28;24880;-59
2021/07/17 03:42:04;;;;;;;28.60;25.90;;;;;;;;;;5091831;28;24420;-59
2021/07/17 03:44:30;;;;;;;25.13;22.80;;;;;;;;;;5074553;28;24465;-59
2021/07/17 03:46:55;;;;;;;25.20;22.85;;;;;;;;;;5097646;28;24418;-60
2021/07/17 03:49:20;;;;;;;28.60;26.10;;;;;;;;;;5089522;28;24971;-59
2021/07/17 03:51:45;;;;;;;25.43;23.13;;;;;;;;;;5075606;28;24454;-60
2021/07/17 03:54:10;;;;;;;29.88;27.08;;;;;;;;;;5083518;28;24418;-59
2021/07/17 03:56:35;;;;;;;26.33;24.03;;;;;;;;;;5093627;28;24454;-59
2021/07/17 03:59:01;;;;;;;27.15;24.65;;;;;;;;;;5088902;28;24413;-59
2021/07/17 04:01:26;;;;;;;27.13;24.73;;;;;;;;;;5087617;28;24413;-59
2021/07/17 04:03:51;;;;;;;28.20;25.80;;;;;;;;;;5094823;28;24772;-59
2021/07/17 04:06:16;;;;;;;24.13;21.98;;;;;;;;;;5082997;28;24704;-59
2021/07/17 04:08:41;;;;;;;24.65;22.63;;;;;;;;;;5079788;28;24479;-59
2021/07/17 04:11:06;;;;;;;29.95;27.45;;;;;;;;;;5079753;28;24784;-58
2021/07/17 04:13:31;;;;;;;26.63;24.33;;;;;;;;;;5091855;28;24438;-58
2021/07/17 04:15:57;;;;;;;26.67;24.48;;;;;;;;;;5089488;28;24994;-58
2021/07/17 04:18:22;;;;;;;25.37;23.20;;;;;;;;;;5016913;28;1691355;-58
2021/07/17 04:20:47;;;;;;;25.08;22.85;;;;;;;;;;5083045;28;24781;-57
2021/07/17 04:23:12;;;;;;;25.77;23.50;;;;;;;;;;5069274;28;24447;-58
2021/07/17 04:25:37;;;;;;;24.43;22.33;;;;;;;;;;5083900;28;24519;-58
2021/07/17 04:28:02;;;;;;;23.67;21.67;;;;;;;;;;5081394;28;24809;-58
2021/07/17 04:30:28;;;;;;;24.50;22.50;;;;;;;;;;5086485;28;24796;-58
2021/07/17 04:32:53;;;;;;;24.70;22.40;;;;;;;;;;5089998;28;24414;-57
2021/07/17 04:35:18;;;;;;;22.13;20.33;;;;;;;;;;5092373;28;24559;-57
2021/07/17 04:37:43;;;;;;;23.40;21.60;;;;;;;;;;5092897;28;24525;-58
2021/07/17 04:40:09;;;;;;;23.40;21.37;;;;;;;;;;5089784;28;24982;-58
2021/07/17 04:42:34;;;;;;;19.50;18.00;;;;;;;;;;5091317;28;24959;-58
2021/07/17 04:44:59;;;;;;;20.35;18.65;;;;;;;;;;5085353;28;24537;-57
2021/07/17 04:47:24;;;;;;;19.23;17.73;;;;;;;;;;5094346;28;24441;-57
2021/07/17 04:49:49;;;;;;;20.40;18.70;;;;;;;;;;5085167;28;24453;-57
2021/07/17 04:52:14;;;;;;;19.45;17.83;;;;;;;;;;5084533;28;24529;-57
2021/07/17 04:54:40;;;;;;;17.07;15.80;;;;;;;;;;5083731;28;24421;-58
2021/07/17 04:57:05;;;;;;;18.23;16.73;;;;;;;;;;5085935;28;24422;-57
2021/07/17 04:59:30;;;;;;;19.92;18.23;;;;;;;;;;5091774;28;24424;-58
2021/07/17 05:01:55;;;;;;;17.87;16.37;;;;;;;;;;5089880;28;24410;-58
2021/07/17 05:04:20;;;;;;;25.02;22.83;;;;;;;;;;5087743;28;24411;-58
2021/07/17 05:06:45;;;;;;;20.33;18.63;;;;;;;;;;5098355;28;24690;-58
2021/07/17 05:09:11;;;;;;;15.88;14.68;;;;;;;;;;5091218;28;25197;-58
2021/07/17 05:11:36;;;;;;;15.77;14.57;;;;;;;;;;5088305;28;24399;-58
2021/07/17 05:14:01;;;;;;;17.23;15.93;;;;;;;;;;5079859;28;24414;-58
2021/07/17 05:16:27;;;;;;;17.60;16.17;;;;;;;;;;5067874;28;25007;-59
2021/07/17 05:18:52;;;;;;;18.30;16.83;;;;;;;;;;5067543;28;24464;-59
2021/07/17 05:21:17;;;;;;;17.20;15.73;;;;;;;;;;5083304;28;25135;-59
2021/07/17 05:23:43;;;;;;;18.70;17.10;;;;;;;;;;5084342;28;24419;-59
2021/07/17 05:26:08;;;;;;;16.70;15.38;;;;;;;;;;5091729;28;24969;-58
2021/07/17 05:28:33;;;;;;;18.10;16.60;;;;;;;;;;5080842;28;24414;-58
2021/07/17 05:30:58;;;;;;;20.17;18.33;;;;;;;;;;5083963;28;24994;-58
2021/07/17 05:33:23;;;;;;;20.90;19.00;;;;;;;;;;5068182;28;24484;-58
2021/07/17 05:35:48;;;;;;;20.60;18.70;;;;;;;;;;5067502;28;24433;-58
2021/07/17 05:38:14;;;;;;;19.70;18.00;;;;;;;;;;5067136;28;24820;-58
2021/07/17 05:40:39;;;;;;;19.70;17.90;;;;;;;;;;5077932;28;24990;-58
2021/07/17 05:43:04;;;;;;;19.93;18.33;;;;;;;;;;5072686;28;24422;-57
2021/07/17 05:45:29;;;;;;;19.40;17.80;;;;;;;;;;5076817;28;24410;-58
2021/07/17 05:47:54;;;;;;;21.90;19.93;;;;;;;;;;5080989;28;24971;-58
2021/07/17 05:50:20;;;;;;;22.13;20.13;;;;;;;;;;5074001;28;25013;-58
2021/07/17 05:52:45;;;;;;;22.70;20.50;;;;;;;;;;5067942;28;24442;-58
2021/07/17 05:55:11;;;;;;;23.63;21.33;;;;;;;;;;5067201;28;24414;-58
2021/07/17 05:57:36;;;;;;;21.70;19.50;;;;;;;;;;5067268;28;24819;-59
2021/07/17 06:00:04;;;;;;;21.97;19.97;;;;;;;;;;5067417;28;25048;-58
2021/07/17 06:02:29;;;;;;;23.10;20.83;;;;;;;;;;5066948;28;24476;-58
2021/07/17 06:04:54;;;;;;;22.60;20.40;;;;;;;;;;5067206;28;24778;-58
2021/07/17 06:07:20;;;;;;;23.10;20.43;;;;;;;;;;5075133;28;25010;-57
2021/07/17 06:09:45;;;;;;;22.40;20.20;;;;;;;;;;5084532;28;24402;-57
2021/07/17 06:12:10;;;;;;;24.73;21.97;;;;;;;;;;5072267;28;24444;-59
2021/07/17 06:14:36;;;;;;;24.47;21.70;;;;;;;;;;5066604;28;24430;-57
2021/07/17 06:17:01;;;;;;;25.00;22.43;;;;;;;;;;5066393;28;24551;-57
2021/07/17 06:19:26;;;;;;;23.93;21.63;;;;;;;;;;5074708;28;24414;-58
2021/07/17 06:21:51;;;;;;;26.43;23.73;;;;;;;;;;5075388;28;24767;-58
2021/07/17 06:24:17;;;;;;;26.23;23.42;;;;;;;;;;5068488;28;24471;-57
2021/07/17 06:26:42;;;;;;;26.57;24.00;;;;;;;;;;5081902;28;24964;-56
2021/07/17 06:29:07;;;;;;;23.93;21.57;;;;;;;;;;5085993;28;24556;-57
2021/07/17 06:31:32;;;;;;;26.27;23.10;;;;;;;;;;5084063;28;24496;-57
2021/07/17 06:33:57;;;;;;;24.87;22.40;;;;;;;;;;5072913;28;24434;-57
2021/07/17 06:36:23;;;;;;;25.10;22.40;;;;;;;;;;5089587;28;24430;-57
2021/07/17 06:38:48;;;;;;;26.73;22.80;;;;;;;;;;5089367;28;24419;-56
2021/07/17 06:41:13;;;;;;;23.75;21.40;;;;;;;;;;5069856;28;24714;-56
2021/07/17 06:43:38;;;;;;;26.63;23.92;;;;;;;;;;5087483;28;24378;-56
2021/07/17 06:46:04;;;;;;;26.92;23.92;;;;;;;;;;5087166;28;24920;-57
2021/07/17 06:48:29;;;;;;;27.07;24.20;;;;;;;;;;5085166;28;24422;-56
2021/07/17 06:50:54;;;;;;;25.83;23.13;;;;;;;;;;5087406;28;24956;-57
2021/07/17 06:53:20;;;;;;;26.03;23.53;;;;;;;;;;5086881;28;24410;-56
2021/07/17 06:55:45;;;;;;;23.17;20.77;;;;;;;;;;5085967;28;24811;-57
2021/07/17 06:58:11;;;;;;;23.63;21.23;;;;;;;;;;5086973;28;24834;-56
2021/07/17 07:00:36;;;;;;;23.90;21.40;;;;;;;;;;5085864;28;24765;-56
2021/07/17 07:03:02;;;;;;;25.90;23.30;;;;;;;;;;5086816;28;24965;-57
2021/07/17 07:05:27;;;;;;;23.10;20.90;;;;;;;;;;5081440;28;24748;-56
2021/07/17 07:07:52;;;;;;;24.30;21.80;;;;;;;;;;5084978;28;25074;-57
2021/07/17 07:10:18;;;;;;;20.83;18.63;;;;;;;;;;5076357;28;24460;-56
2021/07/17 07:12:43;;;;;;;23.20;20.85;;;;;;;;;;5070069;28;24410;-57
2021/07/17 07:15:09;;;;;;;22.10;19.87;;;;;;;;;;5070081;28;24440;-57
2021/07/17 07:17:35;;;;;;;22.50;20.50;;;;;;;;;;5069850;28;24484;-56
2021/07/17 07:20:01;;;;;;;23.48;20.90;;;;;;;;;;5070329;28;24394;-57
2021/07/17 07:22:26;;;;;;;23.33;20.90;;;;;;;;;;5080332;28;24421;-56
2021/07/17 07:24:51;;;;;;;23.37;21.13;;;;;;;;;;5090603;28;24395;-56
2021/07/17 07:27:17;;;;;;;24.05;21.65;;;;;;;;;;5089911;28;24409;-56
2021/07/17 07:29:42;;;;;;;27.08;24.08;;;;;;;;;;5089680;28;24421;-56
2021/07/17 07:32:07;;;;;;;23.52;21.02;;;;;;;;;;5088174;28;24411;-56
2021/07/17 07:34:32;;;;;;;24.83;22.23;;;;;;;;;;5089948;28;24386;-56
2021/07/17 07:36:57;;;;;;;21.90;19.80;;;;;;;;;;5089801;28;24421;-56
2021/07/17 07:39:22;;;;;;;19.15;17.42;;;;;;;;;;5089762;28;24390;-56
2021/07/17 07:41:47;;;;;;;22.25;20.05;;;;;;;;;;5074162;28;24422;-55
2021/07/17 07:44:13;;;;;;;21.33;19.25;;;;;;;;;;5070488;28;24508;-56
2021/07/17 07:46:38;;;;;;;21.15;18.83;;;;;;;;;;5069280;28;25148;-56
2021/07/17 07:49:03;;;;;;;22.20;20.20;;;;;;;;;;5069632;28;24491;-56
2021/07/17 07:51:29;;;;;;;21.37;19.07;;;;;;;;;;5069545;28;24457;-56
2021/07/17 07:53:54;;;;;;;18.23;16.43;;;;;;;;;;5069349;28;24411;-55
2021/07/17 07:56:19;;;;;;;17.97;16.27;;;;;;;;;;5069031;28;25007;-56
2021/07/17 07:58:44;;;;;;;16.27;14.77;;;;;;;;;;5069635;28;24395;-55
2021/07/17 08:01:09;;;;;;;14.38;12.95;;;;;;;;;;5069027;28;25347;-56
2021/07/17 08:03:35;;;;;;;13.67;12.37;;;;;;;;;;5069343;28;24486;-55
2021/07/17 08:06:00;;;;;;;12.00;11.00;;;;;;;;;;5068676;28;24411;-55
2021/07/17 08:08:25;;;;;;;10.87;10.07;;;;;;;;;;5069189;28;24394;-56
2021/07/17 08:10:50;;;;;;;9.95;9.10;;;;;;;;;;5068693;28;24426;-56
2021/07/17 08:13:15;;;;;;;10.48;9.60;;;;;;;;;;5068577;28;24427;-56
2021/07/17 08:15:40;;;;;;;10.48;9.60;;;;;;;;;;5068560;28;24414;-56
2021/07/17 08:18:07;;;;;;;10.80;9.90;;;;;;;;;;5068496;28;24453;-56
2021/07/17 08:20:32;;;;;;;12.73;11.68;;;;;;;;;;5068738;28;24383;-55
2021/07/17 08:22:57;;;;;;;12.15;11.15;;;;;;;;;;5068261;28;25008;-56
2021/07/17 08:25:22;;;;;;;12.47;11.47;;;;;;;;;;5068830;28;24394;-56
2021/07/17 08:27:47;;;;;;;11.90;10.90;;;;;;;;;;5068824;28;24513;-56
2021/07/17 08:30:13;;;;;;;11.15;10.35;;;;;;;;;;5068750;28;24395;-56
2021/07/17 08:32:38;;;;;;;10.90;10.10;;;;;;;;;;5078167;28;24958;-56
2021/07/17 08:35:04;;;;;;;10.40;9.50;;;;;;;;;;5089275;28;24543;-56
2021/07/17 08:37:29;;;;;;;11.20;10.30;;;;;;;;;;5094384;28;24437;-56
2021/07/17 08:39:54;;;;;;;11.80;10.90;;;;;;;;;;5099640;28;24406;-57
2021/07/17 08:42:21;;;;;;;10.83;10.03;;;;;;;;;;5097518;28;24444;-56
2021/07/17 08:44:49;;;;;;;11.30;10.40;;;;;;;;;;5090537;28;24417;-56
2021/07/17 08:47:17;;;;;;;11.50;10.50;;;;;;;;;;5096985;28;24974;-56
2021/07/17 08:49:43;;;;;;;12.30;11.30;;;;;;;;;;5090761;28;24425;-56
2021/07/17 08:52:09;;;;;;;13.55;12.35;;;;;;;;;;5087976;28;25395;-56
2021/07/17 08:54:34;;;;;;;13.07;11.87;;;;;;;;;;5097659;28;24413;-56
2021/07/17 08:57:00;;;;;;;11.67;10.77;;;;;;;;;;5099709;28;24437;-56
2021/07/17 08:59:25;;;;;;;11.80;10.87;;;;;;;;;;5098795;28;24501;-57
2021/07/17 09:01:50;;;;;;;12.40;11.20;;;;;;;;;;5086970;28;24390;-56
2021/07/17 09:04:15;;;;;;;11.77;10.77;;;;;;;;;;5065890;28;24978;-56
2021/07/17 09:06:41;;;;;;;12.67;11.63;;;;;;;;;;5073445;28;24476;-55
2021/07/17 09:09:06;;;;;;;13.50;12.20;;;;;;;;;;5072539;28;24435;-55
2021/07/17 09:11:35;;;;;;;14.27;12.88;;;;;;;;;;5091929;28;24477;-57
2021/07/17 09:14:01;;;;;;;12.80;11.70;;;;;;;;;;5082026;28;24398;-55
2021/07/17 09:16:29;;;;;;;12.93;11.83;;;;;;;;;;5067575;28;25028;-55
2021/07/17 09:18:54;;;;;;;15.57;14.18;;;;;;;;;;5067468;28;24422;-54
2021/07/17 09:21:27;;;;;;;14.10;12.90;;;;;;;;;;5068153;28;24837;-55
2021/07/17 09:23:54;;;;;;;17.33;15.60;;;;;;;;;;5086064;28;24400;-55
2021/07/17 09:26:25;;;;;;;16.10;14.50;;;;;;;;;;5079290;28;24475;-55
2021/07/17 09:28:58;;;;;;;17.70;15.90;;;;;;;;;;5069161;28;24979;-55
2021/07/17 09:31:24;;;;;;;16.83;15.30;;;;;;;;;;5075261;28;24429;-56
2021/07/17 09:33:50;;;;;;;18.77;17.02;;;;;;;;;;5085723;28;24498;-55
2021/07/17 09:36:16;;;;;;;21.65;19.67;;;;;;;;;;5086285;28;24622;-54
2021/07/17 09:38:47;;;;;;;19.50;17.60;;;;;;;;;;5084055;28;25189;-55
2021/07/17 09:41:13;;;;;;;21.67;19.48;;;;;;;;;;5067321;28;24457;-55
2021/07/17 09:43:40;;;;;;;23.00;20.70;;;;;;;;;;5075131;28;24406;-55
2021/07/17 09:46:15;;;;;;;23.50;21.40;;;;;;;;;;5087686;28;24419;-55
2021/07/17 09:48:44;;;;;;;26.07;23.37;;;;;;;;;;5087480;28;24513;-55
2021/07/17 09:51:09;;;;;;;24.27;21.98;;;;;;;;;;5087273;28;24394;-55
2021/07/17 09:53:35;;;;;;;25.93;23.23;;;;;;;;;;5087694;28;24491;-55
2021/07/17 09:56:19;;;;;;;25.92;23.40;;;;;;;;;;5083640;28;24430;-55
2021/07/17 09:58:45;;;;;;;25.15;22.75;;;;;;;;;;5067109;28;25024;-55
2021/07/17 10:01:20;;;;;;;22.58;20.38;;;;;;;;;;5067093;28;24515;-55
2021/07/17 10:03:46;;;;;;;22.67;20.58;;;;;;;;;;5070264;28;24839;-55
2021/07/17 10:06:25;;;;;;;27.87;25.07;;;;;;;;;;5075420;28;24440;-55
2021/07/17 10:08:50;;;;;;;25.10;22.40;;;;;;;;;;5081426;28;24419;-54
2021/07/17 10:11:21;;;;;;;30.90;27.70;;;;;;;;;;5079354;28;24471;-55
2021/07/17 10:13:46;;;;;;;28.83;25.83;;;;;;;;;;5077528;28;24473;-56
2021/07/17 10:16:15;;;;;;;30.85;26.42;;;;;;;;;;5078153;28;24506;-56
2021/07/17 10:18:41;;;;;;;27.70;25.00;;;;;;;;;;5066558;28;24472;-54
2021/07/17 10:21:06;;;;;;;29.47;26.27;;;;;;;;;;5066815;28;24750;-54
2021/07/17 10:23:31;;;;;;;31.42;27.65;;;;;;;;;;5066762;28;24968;-54
2021/07/17 10:25:56;;;;;;;30.67;27.10;;;;;;;;;;5073447;28;24940;-54
2021/07/17 10:28:23;;;;;;;29.08;26.08;;;;;;;;;;5080426;28;24422;-55
2021/07/17 10:30:48;;;;;;;24.90;22.40;;;;;;;;;;5076904;28;25041;-55
2021/07/17 10:33:13;;;;;;;28.83;26.07;;;;;;;;;;5069118;28;24576;-55
2021/07/17 10:35:39;;;;;;;29.63;26.53;;;;;;;;;;5070177;28;24422;-55
2021/07/17 10:38:06;;;;;;;31.08;27.77;;;;;;;;;;5081803;28;24460;-56
2021/07/17 10:40:32;;;;;;;27.50;24.67;;;;;;;;;;5069238;28;24507;-55
2021/07/17 10:42:58;;;;;;;28.30;25.50;;;;;;;;;;5066900;28;24510;-55
2021/07/17 10:45:33;;;;;;;27.40;24.70;;;;;;;;;;5077782;28;24430;-55
2021/07/17 10:47:58;;;;;;;27.58;24.88;;;;;;;;;;5071835;28;24431;-55
2021/07/17 10:50:30;;;;;;;27.73;25.03;;;;;;;;;;5091928;28;24571;-56
2021/07/17 10:52:55;;;;;;;27.95;25.15;;;;;;;;;;5100838;28;24970;-55
2021/07/17 10:55:28;;;;;;;27.17;24.45;;;;;;;;;;5092642;28;24621;-55
2021/07/17 10:57:53;;;;;;;31.10;27.80;;;;;;;;;;5099432;28;24422;-55
2021/07/17 11:00:37;;;;;;;30.47;27.17;;;;;;;;;;5088749;28;24414;-55
2021/07/17 11:03:16;;;;;;;26.52;23.92;;;;;;;;;;5081157;28;24583;-55
2021/07/17 11:05:41;;;;;;;29.40;26.40;;;;;;;;;;5095657;28;24472;-55
2021/07/17 11:08:06;;;;;;;31.50;28.10;;;;;;;;;;5096920;28;24822;-55
2021/07/17 11:10:43;;;;;;;30.90;27.67;;;;;;;;;;5082327;28;25004;-55
2021/07/17 11:13:08;;;;;;;39.53;33.37;;;;;;;;;;5071486;28;24519;-55
2021/07/17 11:15:34;;;;;;;32.73;29.13;;;;;;;;;;5070414;28;24573;-55
2021/07/17 11:18:17;;;;;;;37.47;31.17;;;;;;;;;;5077241;28;24481;-55
2021/07/17 11:20:43;;;;;;;33.53;29.85;;;;;;;;;;5089334;28;24421;-55
2021/07/17 11:23:11;;;;;;;38.22;32.63;;;;;;;;;;5074568;28;24420;-55
2021/07/17 11:25:36;;;;;;;38.33;32.88;;;;;;;;;;5087861;28;25090;-55
2021/07/17 11:28:01;;;;;;;32.27;29.07;;;;;;;;;;5098356;28;24425;-55
2021/07/17 11:30:31;;;;;;;36.20;31.40;;;;;;;;;;5084081;28;24442;-55
2021/07/17 11:33:05;;;;;;;33.58;30.00;;;;;;;;;;5084705;28;24433;-55
2021/07/17 11:35:30;;;;;;;34.40;30.87;;;;;;;;;;5091408;28;24448;-55
2021/07/17 11:37:56;;;;;;;36.13;31.45;;;;;;;;;;5075437;28;24457;-56
2021/07/17 11:40:21;;;;;;;37.97;33.87;;;;;;;;;;5080137;28;24411;-56
2021/07/17 11:42:46;;;;;;;39.20;34.90;;;;;;;;;;5099778;28;24422;-55
2021/07/17 11:45:11;;;;;;;35.27;31.73;;;;;;;;;;5102986;28;24413;-56
2021/07/17 11:47:37;;;;;;;34.47;30.77;;;;;;;;;;5089136;28;24470;-56
2021/07/17 11:50:03;;;;;;;35.60;31.40;;;;;;;;;;5092610;28;24951;-55
2021/07/17 11:52:30;;;;;;;35.75;31.95;;;;;;;;;;5087318;28;25016;-55
2021/07/17 11:54:56;;;;;;;33.78;30.08;;;;;;;;;;5092975;28;24464;-55
2021/07/17 11:57:23;;;;;;;40.50;36.10;;;;;;;;;;5069074;28;24801;-55
2021/07/17 11:59:56;;;;;;;37.55;33.60;;;;;;;;;;5067749;28;24840;-55
2021/07/17 12:02:23;;;;;;;34.13;30.60;;;;;;;;;;5087938;28;24417;-55
2021/07/17 12:04:49;;;;;;;36.53;32.63;;;;;;;;;;5078137;28;24425;-55
2021/07/17 12:07:15;;;;;;;42.10;37.55;;;;;;;;;;5079508;28;24458;-55
2021/07/17 12:09:41;;;;;;;34.87;31.37;;;;;;;;;;5069262;28;24440;-55
2021/07/17 12:12:29;;;;;;;37.80;33.70;;;;;;;;;;5076387;28;24426;-55
2021/07/17 12:14:56;;;;;;;38.95;34.75;;;;;;;;;;5065892;28;24444;-55
2021/07/17 12:17:22;;;;;;;37.63;33.53;;;;;;;;;;5067593;28;25002;-56
2021/07/17 12:20:00;;;;;;;37.50;33.50;;;;;;;;;;5070310;28;24513;-55
2021/07/17 12:22:25;;;;;;;34.67;30.98;;;;;;;;;;5075642;28;24501;-55
2021/07/17 12:24:59;;;;;;;34.83;31.40;;;;;;;;;;5084809;28;24453;-56
2021/07/17 12:27:25;;;;;;;35.13;31.63;;;;;;;;;;5079877;28;24441;-57
2021/07/17 12:29:50;;;;;;;34.27;30.70;;;;;;;;;;5074249;28;24421;-56
2021/07/17 12:32:19;;;;;;;36.33;32.45;;;;;;;;;;5081121;28;24429;-56
2021/07/17 12:34:52;;;;;;;35.33;31.63;;;;;;;;;;5073222;28;24496;-56
2021/07/17 12:37:24;;;;;;;34.60;31.05;;;;;;;;;;5072334;28;24458;-56
2021/07/17 12:40:02;;;;;;;35.13;31.33;;;;;;;;;;5078312;28;24501;-56
2021/07/17 12:42:31;;;;;;;32.55;29.45;;;;;;;;;;5070762;28;24853;-56
2021/07/17 12:44:57;;;;;;;33.60;30.30;;;;;;;;;;5074610;28;24410;-56
2021/07/17 12:47:22;;;;;;;33.70;30.50;;;;;;;;;;5089938;28;24424;-56
2021/07/17 12:49:58;;;;;;;31.98;28.98;;;;;;;;;;5107067;27;25024;-58
2021/07/17 12:52:23;;;;;;;30.60;27.80;;;;;;;;;;5106914;28;24970;-56
2021/07/17 12:54:48;;;;;;;29.20;26.60;;;;;;;;;;5091054;28;24433;-57
2021/07/17 12:57:13;;;;;;;31.02;28.13;;;;;;;;;;5081747;28;24430;-56
2021/07/17 12:59:40;;;;;;;28.43;25.83;;;;;;;;;;5084546;28;25332;-56
2021/07/17 13:02:06;;;;;;;29.00;26.30;;;;;;;;;;5093256;28;24464;-56
2021/07/17 13:04:31;;;;;;;27.23;24.63;;;;;;;;;;5084676;28;24399;-57
2021/07/17 13:07:00;;;;;;;29.07;26.20;;;;;;;;;;5079948;28;25298;-56
2021/07/17 13:09:33;;;;;;;30.90;28.00;;;;;;;;;;5077452;28;24421;-55
2021/07/17 13:11:59;;;;;;;29.38;26.67;;;;;;;;;;5094027;28;24524;-55
2021/07/17 13:14:25;;;;;;;29.88;27.00;;;;;;;;;;5091599;28;24834;-55
2021/07/17 13:16:50;;;;;;;29.70;26.80;;;;;;;;;;5097769;28;24995;-56
2021/07/17 13:19:15;;;;;;;30.33;27.43;;;;;;;;;;5080305;28;25282;-56
2021/07/17 13:21:44;;;;;;;32.23;29.23;;;;;;;;;;5084044;28;24436;-56
2021/07/17 13:24:12;;;;;;;30.48;27.67;;;;;;;;;;5081033;28;24411;-56
2021/07/17 13:26:39;;;;;;;32.85;29.58;;;;;;;;;;5066189;28;24966;-56
2021/07/17 13:29:15;;;;;;;32.85;29.45;;;;;;;;;;5088049;28;24451;-56
2021/07/17 13:31:47;;;;;;;31.92;28.92;;;;;;;;;;5088215;28;24413;-57
2021/07/17 13:34:12;;;;;;;35.55;31.95;;;;;;;;;;5084947;28;24502;-56
2021/07/17 13:36:56;;;;;;;35.87;32.30;;;;;;;;;;5074449;28;24524;-56
2021/07/17 13:39:23;;;;;;;35.75;32.33;;;;;;;;;;5085499;28;24490;-56
2021/07/17 13:41:48;;;;;;;34.92;31.60;;;;;;;;;;5094874;28;24406;-56
2021/07/17 13:44:15;;;;;;;34.27;30.97;;;;;;;;;;5090487;28;24450;-56
2021/07/17 13:46:40;;;;;;;34.95;31.65;;;;;;;;;;5087803;28;24475;-56
2021/07/17 13:49:09;;;;;;;37.50;33.77;;;;;;;;;;5088255;28;24422;-57
2021/07/17 13:51:35;;;;;;;37.30;33.70;;;;;;;;;;5085681;28;24426;-57
2021/07/17 13:54:03;;;;;;;34.83;31.63;;;;;;;;;;5086774;28;24535;-58
2021/07/17 13:56:29;;;;;;;35.20;31.98;;;;;;;;;;5086312;28;24484;-58
2021/07/17 13:58:58;;;;;;;34.30;31.10;;;;;;;;;;5089340;28;24765;-57
2021/07/17 14:01:41;;;;;;;35.10;31.77;;;;;;;;;;5094877;28;24476;-57
2021/07/17 14:04:06;;;;;;;35.97;32.75;;;;;;;;;;5079773;28;24423;-57
2021/07/17 14:06:32;;;;;;;34.88;31.58;;;;;;;;;;5067784;28;24807;-57
2021/07/17 14:08:57;;;;;;;35.47;32.00;;;;;;;;;;5084949;28;24424;-58
2021/07/17 14:11:23;;;;;;;34.90;31.70;;;;;;;;;;5087267;28;24514;-57